Skip to main content.
 TIME   TEMPERATURE   WINDSPEED   DIRECTION   HUMIDITY   BAROMETER   RAINFALL 
10:40 13.0°C (55.4°F) 14.8 kmh (9.2 mph) SE 62% 1026.1hPa (30.30 inHg) 0.0mm (0.00 in.)
9:40 13.0°C (55.4 °F) 7.4 kmh (4.6 mph) ESE 62% 1025.1hPa (30.27 inHg) 0.0mm (0.00 in.)
8:40 10.0°C (50.0 °F) 7.4 kmh (4.6 mph) SE 71% 1024.0hPa (30.24 inHg) 0.0mm (0.00 in.)
7:40 8.0°C (46.4 °F) 7.4 kmh (4.6 mph) SE 75% 1024.0hPa (30.24 inHg) 0.0mm (0.00 in.)
6:40 8.0°C (46.4 °F) 7.4 kmh (4.6 mph) SE 81% 1024.0hPa (30.24 inHg) 0.0mm (0.00 in.)
5:40 8.0°C (46.4 °F) 1.9 kmh (1.2 mph) ESE 75% 1023.0hPa (30.21 inHg) 0.0mm (0.00 in.)
4:40 8.0°C (46.4 °F) 1.9 kmh (1.2 mph) E 75% 1023.0hPa (30.21 inHg) 0.0mm (0.00 in.)
3:40 8.0°C (46.4 °F) 3.7 kmh (2.3 mph) E 70% 1023.0hPa (30.21 inHg) 0.0mm (0.00 in.)
2:40 10.0°C (50.0 °F) 7.4 kmh (4.6 mph) ESE 61% 1023.0hPa (30.21 inHg) 0.0mm (0.00 in.)
1:40 10.0°C (50.0 °F) 7.4 kmh (4.6 mph) E 61% 1022.0hPa (30.18 inHg) 0.0mm (0.00 in.)
12:40 10.0°C (50.0 °F) 7.4 kmh (4.6 mph) E 61% 1022.0hPa (30.18 inHg) 0.0mm (0.00 in.)
11:40 11.0°C (51.8 °F) 9.3 kmh (5.8 mph) E 57% 1022.0hPa (30.18 inHg) 0.0mm (0.00 in.)
10:40 11.0°C (51.8 °F) 9.3 kmh (5.8 mph) E 61% 1022.0hPa (30.18 inHg) 0.0mm (0.00 in.)
9:40 11.0°C (51.8 °F) 9.3 kmh (5.8 mph) ENE 66% 1021.0hPa (30.15 inHg) 0.0mm (0.00 in.)
8:40 12.0°C (53.6 °F) 9.3 kmh (5.8 mph) E 66% 1020.0hPa (30.12 inHg) 0.0mm (0.00 in.)
7:40 11.0°C (51.8 °F) 9.3 kmh (5.8 mph) NNE 76% 1019.0hPa (30.09 inHg) 0.0mm (0.00 in.)
6:40 12.0°C (53.6 °F) 13.0 kmh (8.1 mph) NNW 76% 1017.9hPa (30.06 inHg) 0.0mm (0.00 in.)
5:40 13.0°C (55.4 °F) 14.8 kmh (9.2 mph) NNW 66% 1016.9hPa (30.03 inHg) 0.0mm (0.00 in.)
4:40 15.0°C (59.0 °F) 22.2 kmh (13.8 mph) NW 62% 1016.9hPa (30.03 inHg) 0.0mm (0.00 in.)
3:40 15.0°C (59.0 °F) 20.4 kmh (12.7 mph) NNW 54% 1015.9hPa (30.00 inHg) 0.0mm (0.00 in.)
2:40 15.0°C (59.0 °F) 29.6 kmh (18.4 mph) NNW 58% 1015.9hPa (30.00 inHg) 0.0mm (0.00 in.)
1:40 16.0°C (60.8 °F) 27.8 kmh (17.3 mph) NNW 51% 1014.9hPa (29.97 inHg) 0.0mm (0.00 in.)
12:40 15.0°C (59.0 °F) 29.6 kmh (18.4 mph) N 58% 1014.9hPa (29.97 inHg) 0.0mm (0.00 in.)
11:40 15.0°C (59.0 °F) 31.5 kmh (19.6 mph) N 58% 1014.9hPa (29.97 inHg) 0.0mm (0.00 in.)